sensor_id;sensor_type;location;lat;lon;timestamp;pressure;altitude;pressure_sealevel;temperature;humidity
35121;BME280;21297;52.008;4.576;2023-07-13T00:11:43;53662.22;;;-143.47;78.32
35121;BME280;21297;52.008;4.576;2023-07-13T00:14:38;53638.59;;;-143.47;77.68
35121;BME280;21297;52.008;4.576;2023-07-13T00:17:56;53628.75;;;-143.47;77.58
35121;BME280;21297;52.008;4.576;2023-07-13T00:20:42;53693.72;;;-143.47;75.88
35121;BME280;21297;52.008;4.576;2023-07-13T00:34:36;53711.44;;;-143.47;72.89
35121;BME280;21297;52.008;4.576;2023-07-13T00:37:25;53672.06;;;-143.47;73.87
35121;BME280;21297;52.008;4.576;2023-07-13T00:47:54;53809.88;;;-143.47;73.19
35121;BME280;21297;52.008;4.576;2023-07-13T00:59:34;53703.56;;;-143.47;73.00
35121;BME280;21297;52.008;4.576;2023-07-13T01:05:21;53803.97;;;-143.47;73.73
35121;BME280;21297;52.008;4.576;2023-07-13T01:08:30;53770.50;;;-143.47;74.01
35121;BME280;21297;52.008;4.576;2023-07-13T01:11:20;53514.56;;;-143.47;73.60
35121;BME280;21297;52.008;4.576;2023-07-13T01:22:57;53506.69;;;-143.47;72.43
35121;BME280;21297;52.008;4.576;2023-07-13T01:25:49;53445.66;;;-143.47;73.16
35121;BME280;21297;52.008;4.576;2023-07-13T01:32:11;53496.84;;;-143.47;71.99
35121;BME280;21297;52.008;4.576;2023-07-13T01:35:00;53392.50;;;-143.47;71.70
35121;BME280;21297;52.008;4.576;2023-07-13T01:37:46;53455.50;;;-143.47;72.14
35121;BME280;21297;52.008;4.576;2023-07-13T01:43:33;53362.97;;;-143.47;72.46
35121;BME280;21297;52.008;4.576;2023-07-13T01:46:22;53402.34;;;-143.47;71.78
35121;BME280;21297;52.008;4.576;2023-07-13T01:49:13;53349.19;;;-143.47;70.74
35121;BME280;21297;52.008;4.576;2023-07-13T01:51:59;53329.50;;;-143.47;68.72
35121;BME280;21297;52.008;4.576;2023-07-13T01:54:45;53370.84;;;-143.47;68.61
35121;BME280;21297;52.008;4.576;2023-07-13T02:00:22;53311.78;;;-143.47;68.80
35121;BME280;21297;52.008;4.576;2023-07-13T02:22:49;53254.72;;;-143.47;69.46
35121;BME280;21297;52.008;4.576;2023-07-13T03:14:58;53278.34;;;-143.47;79.63
35121;BME280;21297;52.008;4.576;2023-07-13T03:17:52;53248.81;;;-143.47;79.92
35121;BME280;21297;52.008;4.576;2023-07-13T03:20:38;53284.25;;;-143.47;80.53
35121;BME280;21297;52.008;4.576;2023-07-13T03:23:24;53303.91;;;-143.47;80.65
35121;BME280;21297;52.008;4.576;2023-07-13T03:26:33;53357.06;;;-143.47;80.80
35121;BME280;21297;52.008;4.576;2023-07-13T03:43:44;53229.13;;;-143.47;83.48
35121;BME280;21297;52.008;4.576;2023-07-13T03:46:39;53327.53;;;-143.47;83.13
35121;BME280;21297;52.008;4.576;2023-07-13T03:52:16;53384.63;;;-143.47;82.99
35121;BME280;21297;52.008;4.576;2023-07-13T03:55:02;53396.44;;;-143.47;82.85
35121;BME280;21297;52.008;4.576;2023-07-13T03:57:58;53345.25;;;-143.47;83.45
35121;BME280;21297;52.008;4.576;2023-07-13T04:01:00;53441.72;;;-143.47;83.45
35121;BME280;21297;52.008;4.576;2023-07-13T04:19:23;53516.53;;;-143.47;81.53
35121;BME280;21297;52.008;4.576;2023-07-13T04:22:40;53481.09;;;-143.47;81.95
35121;BME280;21297;52.008;4.576;2023-07-13T04:26:14;53431.88;;;-143.47;81.78
35121;BME280;21297;52.008;4.576;2023-07-13T04:28:43;53485.03;;;-143.47;80.76
35121;BME280;21297;52.008;4.576;2023-07-13T04:31:30;53445.66;;;-143.47;81.89
35121;BME280;21297;52.008;4.576;2023-07-13T04:34:15;53459.44;;;-143.47;81.78
35121;BME280;21297;52.008;4.576;2023-07-13T04:37:02;53561.81;;;-143.47;81.88
35121;BME280;21297;52.008;4.576;2023-07-13T04:39:50;53569.69;;;-143.47;82.72
35121;BME280;21297;52.008;4.576;2023-07-13T04:42:35;53526.38;;;-143.47;82.70
35121;BME280;21297;52.008;4.576;2023-07-13T04:45:22;53504.72;;;-143.47;82.83
35121;BME280;21297;52.008;4.576;2023-07-13T04:48:09;53553.94;;;-143.47;83.04
35121;BME280;21297;52.008;4.576;2023-07-13T04:50:56;53538.19;;;-143.47;81.99
35121;BME280;21297;52.008;4.576;2023-07-13T04:53:42;53555.91;;;-143.47;81.83
35121;BME280;21297;52.008;4.576;2023-07-13T04:56:28;53597.25;;;-143.47;80.45
35121;BME280;21297;52.008;4.576;2023-07-13T04:59:15;53687.81;;;-143.47;79.16
35121;BME280;21297;52.008;4.576;2023-07-13T05:02:01;53731.13;;;-143.47;79.11
35121;BME280;21297;52.008;4.576;2023-07-13T05:04:48;53811.84;;;-143.47;77.76
35121;BME280;21297;52.008;4.576;2023-07-13T05:07:34;53861.06;;;-143.47;77.00
35121;BME280;21297;52.008;4.576;2023-07-13T05:10:20;53928.00;;;-143.47;74.10
35121;BME280;21297;52.008;4.576;2023-07-13T05:13:06;54000.88;;;-143.47;71.29
35121;BME280;21297;52.008;4.576;2023-07-13T05:16:03;54054.03;;;-143.47;69.37
35121;BME280;21297;52.008;4.576;2023-07-13T05:18:49;54054.03;;;-143.47;69.67
35121;BME280;21297;52.008;4.576;2023-07-13T05:21:35;54097.34;;;-143.47;67.56
35121;BME280;21297;52.008;4.576;2023-07-13T05:24:21;54119.00;;;-143.47;66.50
35121;BME280;21297;52.008;4.576;2023-07-13T05:27:06;54085.53;;;-143.47;65.14
35121;BME280;21297;52.008;4.576;2023-07-13T05:29:52;54036.31;;;-143.47;64.96
35121;BME280;21297;52.008;4.576;2023-07-13T05:32:38;54000.88;;;-143.47;65.27
35121;BME280;21297;52.008;4.576;2023-07-13T05:35:24;53993.00;;;-143.47;65.63
35121;BME280;21297;52.008;4.576;2023-07-13T05:38:10;53955.59;;;-143.47;65.71
35121;BME280;21297;52.008;4.576;2023-07-13T05:40:56;53837.44;;;-143.47;66.42
35121;BME280;21297;52.008;4.576;2023-07-13T05:43:42;53906.34;;;-143.47;66.26
35121;BME280;21297;52.008;4.576;2023-07-13T05:46:28;53957.53;;;-143.47;66.37
35121;BME280;21297;52.008;4.576;2023-07-13T05:49:13;54004.81;;;-143.47;69.30
35121;BME280;21297;52.008;4.576;2023-07-13T05:51:59;53994.97;;;-143.47;70.80
35121;BME280;21297;52.008;4.576;2023-07-13T05:54:45;53983.16;;;-143.47;69.98
35121;BME280;21297;52.008;4.576;2023-07-13T05:57:31;53967.41;;;-143.47;71.67
35121;BME280;21297;52.008;4.576;2023-07-13T06:00:17;53949.66;;;-143.47;73.24
35121;BME280;21297;52.008;4.576;2023-07-13T06:03:03;53965.44;;;-143.47;73.07
35121;BME280;21297;52.008;4.576;2023-07-13T06:05:49;54006.78;;;-143.47;72.74
35121;BME280;21297;52.008;4.576;2023-07-13T06:08:35;54038.28;;;-143.47;73.09
35121;BME280;21297;52.008;4.576;2023-07-13T06:11:24;53896.50;;;-143.47;71.67
35121;BME280;21297;52.008;4.576;2023-07-13T06:14:11;53727.19;;;-143.47;70.63
35121;BME280;21297;52.008;4.576;2023-07-13T06:16:56;53514.56;;;-143.47;70.09
35121;BME280;21297;52.008;4.576;2023-07-13T06:19:42;53424.00;;;-143.47;69.88
35121;BME280;21297;52.008;4.576;2023-07-13T06:22:28;53357.06;;;-143.47;70.76
35121;BME280;21297;52.008;4.576;2023-07-13T06:25:14;53258.66;;;-143.47;71.52
35121;BME280;21297;52.008;4.576;2023-07-13T06:28:00;53215.34;;;-143.47;72.19
35121;BME280;21297;52.008;4.576;2023-07-13T06:30:46;53195.66;;;-143.47;71.99
35121;BME280;21297;52.008;4.576;2023-07-13T06:33:31;53303.91;;;-143.47;72.49
35121;BME280;21297;52.008;4.576;2023-07-13T06:36:17;53388.56;;;-143.47;73.49
35121;BME280;21297;52.008;4.576;2023-07-13T06:39:03;53402.34;;;-143.47;73.68
35121;BME280;21297;52.008;4.576;2023-07-13T06:41:49;53457.47;;;-143.47;73.72
35121;BME280;21297;52.008;4.576;2023-07-13T06:44:34;53534.25;;;-143.47;73.19
35121;BME280;21297;52.008;4.576;2023-07-13T06:47:20;53512.59;;;-143.47;73.13
35121;BME280;21297;52.008;4.576;2023-07-13T06:50:06;53502.75;;;-143.47;71.76
35121;BME280;21297;52.008;4.576;2023-07-13T06:52:52;53551.97;;;-143.47;71.36
35121;BME280;21297;52.008;4.576;2023-07-13T06:55:38;53485.03;;;-143.47;71.65
35121;BME280;21297;52.008;4.576;2023-07-13T06:58:24;53583.47;;;-143.47;71.25
35121;BME280;21297;52.008;4.576;2023-07-13T07:01:10;53756.72;;;-143.47;70.92
35121;BME280;21297;52.008;4.576;2023-07-13T07:03:56;53865.00;;;-143.47;70.33
35121;BME280;21297;52.008;4.576;2023-07-13T07:06:42;53991.03;;;-143.47;69.95
35121;BME280;21297;52.008;4.576;2023-07-13T07:09:28;54160.34;;;-143.47;69.01
35121;BME280;21297;52.008;4.576;2023-07-13T07:12:15;54274.56;;;-143.47;66.59
35121;BME280;21297;52.008;4.576;2023-07-13T07:15:01;54239.13;;;-143.47;64.47
35121;BME280;21297;52.008;4.576;2023-07-13T07:17:47;54294.25;;;-143.47;62.27
35121;BME280;21297;52.008;4.576;2023-07-13T07:20:32;54233.22;;;-143.47;64.52
35121;BME280;21297;52.008;4.576;2023-07-13T07:23:18;54321.81;;;-143.47;62.10
35121;BME280;21297;52.008;4.576;2023-07-13T07:26:04;54404.53;;;-143.47;61.89
35121;BME280;21297;52.008;4.576;2023-07-13T07:28:50;54453.75;;;-143.47;61.41
35121;BME280;21297;52.008;4.576;2023-07-13T07:31:36;54245.03;;;-143.47;61.28
35121;BME280;21297;52.008;4.576;2023-07-13T07:34:22;54120.97;;;-143.47;63.02
35121;BME280;21297;52.008;4.576;2023-07-13T07:37:13;54122.94;;;-143.47;61.07
35121;BME280;21297;52.008;4.576;2023-07-13T07:39:59;54105.22;;;-143.47;60.43
35121;BME280;21297;52.008;4.576;2023-07-13T07:42:45;54140.66;;;-143.47;61.75
35121;BME280;21297;52.008;4.576;2023-07-13T07:45:30;54304.09;;;-143.47;61.32
35121;BME280;21297;52.008;4.576;2023-07-13T07:48:16;54373.00;;;-143.47;61.77
35121;BME280;21297;52.008;4.576;2023-07-13T07:51:02;54585.69;;;-143.47;61.49
35121;BME280;21297;52.008;4.576;2023-07-13T07:53:48;54597.50;;;-143.47;58.69
35121;BME280;21297;52.008;4.576;2023-07-13T07:56:34;54418.31;;;-143.47;58.46
35121;BME280;21297;52.008;4.576;2023-07-13T07:59:19;54349.38;;;-143.47;59.24
35121;BME280;21297;52.008;4.576;2023-07-13T08:02:06;54258.81;;;-143.47;60.37
35121;BME280;21297;52.008;4.576;2023-07-13T08:04:52;54250.94;;;-143.47;61.58
35121;BME280;21297;52.008;4.576;2023-07-13T08:07:39;54302.13;;;-143.47;62.50
35121;BME280;21297;52.008;4.576;2023-07-13T08:10:25;54473.44;;;-143.47;60.83
35121;BME280;21297;52.008;4.576;2023-07-13T08:13:11;54412.41;;;-143.47;59.00
35121;BME280;21297;52.008;4.576;2023-07-13T08:15:57;54209.56;;;-143.47;57.14
35121;BME280;21297;52.008;4.576;2023-07-13T08:18:43;54323.78;;;-143.47;59.24
35121;BME280;21297;52.008;4.576;2023-07-13T08:21:29;54400.59;;;-143.47;58.48
35121;BME280;21297;52.008;4.576;2023-07-13T08:24:15;54554.19;;;-143.47;56.73
35121;BME280;21297;52.008;4.576;2023-07-13T08:27:03;54747.16;;;-143.47;56.09
35121;BME280;21297;52.008;4.576;2023-07-13T08:29:50;54757.00;;;-143.47;54.35
35121;BME280;21297;52.008;4.576;2023-07-13T08:32:36;54806.25;;;-143.47;53.68
35121;BME280;21297;52.008;4.576;2023-07-13T08:35:22;54719.59;;;-143.47;54.89
35121;BME280;21297;52.008;4.576;2023-07-13T08:38:08;54510.84;;;-143.47;57.06
35121;BME280;21297;52.008;4.576;2023-07-13T08:40:56;54373.00;;;-143.47;57.03
35121;BME280;21297;52.008;4.576;2023-07-13T08:43:47;54237.16;;;-143.47;58.00
35121;BME280;21297;52.008;4.576;2023-07-13T08:46:36;54120.97;;;-143.47;61.11
35121;BME280;21297;52.008;4.576;2023-07-13T08:49:24;54004.81;;;-143.47;62.68
35121;BME280;21297;52.008;4.576;2023-07-13T08:52:17;53731.13;;;-143.47;66.71
35121;BME280;21297;52.008;4.576;2023-07-13T08:58:14;53459.44;;;-143.47;68.95
35121;BME280;21297;52.008;4.576;2023-07-13T09:07:05;53553.94;;;-143.47;69.68
35121;BME280;21297;52.008;4.576;2023-07-13T09:15:48;53943.78;;;-143.47;67.84
35121;BME280;21297;52.008;4.576;2023-07-13T09:18:58;54168.22;;;-143.47;66.38
35121;BME280;21297;52.008;4.576;2023-07-13T09:21:45;54115.06;;;-143.47;61.52
35121;BME280;21297;52.008;4.576;2023-07-13T09:24:41;53973.31;;;-143.47;62.18
35121;BME280;21297;52.008;4.576;2023-07-13T09:27:39;53963.47;;;-143.47;63.62
35121;BME280;21297;52.008;4.576;2023-07-13T09:30:34;53939.81;;;-143.47;63.55
35121;BME280;21297;52.008;4.576;2023-07-13T09:33:23;54101.28;;;-143.47;65.06
35121;BME280;21297;52.008;4.576;2023-07-13T09:36:24;53998.91;;;-143.47;59.74
35121;BME280;21297;52.008;4.576;2023-07-13T09:45:01;53916.19;;;-143.47;61.80
35121;BME280;21297;52.008;4.576;2023-07-13T09:48:15;53963.47;;;-143.47;63.82
35121;BME280;21297;52.008;4.576;2023-07-13T09:51:07;53998.91;;;-143.47;63.35
35121;BME280;21297;52.008;4.576;2023-07-13T09:53:58;54042.22;;;-143.47;64.36
35121;BME280;21297;52.008;4.576;2023-07-13T09:56:44;54020.56;;;-143.47;63.28
35121;BME280;21297;52.008;4.576;2023-07-13T09:59:33;54193.81;;;-143.47;61.89
35121;BME280;21297;52.008;4.576;2023-07-13T10:05:14;54664.44;;;-143.47;60.43
35121;BME280;21297;52.008;4.576;2023-07-13T10:08:01;54666.41;;;-143.47;59.02
35121;BME280;21297;52.008;4.576;2023-07-13T10:10:53;54825.94;;;-143.47;59.37
35121;BME280;21297;52.008;4.576;2023-07-13T10:13:53;54885.00;;;-143.47;60.30
35121;BME280;21297;52.008;4.576;2023-07-13T10:16:43;54778.66;;;-143.47;60.84
35121;BME280;21297;52.008;4.576;2023-07-13T10:19:32;55089.84;;;-143.47;55.74
35121;BME280;21297;52.008;4.576;2023-07-13T10:22:58;54959.84;;;-143.47;56.23
35121;BME280;21297;52.008;4.576;2023-07-13T10:25:47;54837.75;;;-143.47;53.60
35121;BME280;21297;52.008;4.576;2023-07-13T10:28:36;54544.34;;;-143.47;56.94
35121;BME280;21297;52.008;4.576;2023-07-13T10:31:23;54451.78;;;-143.47;55.51
35121;BME280;21297;52.008;4.576;2023-07-13T10:34:11;54564.03;;;-143.47;58.00
35121;BME280;21297;52.008;4.576;2023-07-13T10:36:58;54201.69;;;-143.47;56.77
35121;BME280;21297;52.008;4.576;2023-07-13T10:39:44;54030.41;;;-143.47;58.83
35121;BME280;21297;52.008;4.576;2023-07-13T10:42:35;53971.34;;;-143.47;59.75
35121;BME280;21297;52.008;4.576;2023-07-13T10:45:23;53985.13;;;-143.47;58.69
35121;BME280;21297;52.008;4.576;2023-07-13T10:48:13;54296.22;;;-143.47;57.55
35121;BME280;21297;52.008;4.576;2023-07-13T10:51:00;54392.69;;;-143.47;55.24
35121;BME280;21297;52.008;4.576;2023-07-13T10:53:47;54733.38;;;-143.47;55.46
35121;BME280;21297;52.008;4.576;2023-07-13T10:56:33;54715.66;;;-143.47;52.46
35121;BME280;21297;52.008;4.576;2023-07-13T10:59:27;54438.00;;;-143.47;52.02
35121;BME280;21297;52.008;4.576;2023-07-13T11:02:27;54416.34;;;-143.47;52.32
35121;BME280;21297;52.008;4.576;2023-07-13T11:05:40;54473.44;;;-143.47;52.90
35121;BME280;21297;52.008;4.576;2023-07-13T11:08:34;54666.41;;;-143.47;53.08
35121;BME280;21297;52.008;4.576;2023-07-13T11:14:37;54636.88;;;-143.47;50.49
35121;BME280;21297;52.008;4.576;2023-07-13T11:17:35;54877.13;;;-143.47;50.31
35121;BME280;21297;52.008;4.576;2023-07-13T11:20:30;55013.03;;;-143.47;50.23
35121;BME280;21297;52.008;4.576;2023-07-13T11:23:20;54920.47;;;-143.47;47.83
35121;BME280;21297;52.008;4.576;2023-07-13T11:29:37;55011.06;;;-143.47;46.69
35121;BME280;21297;52.008;4.576;2023-07-13T11:32:30;55237.56;;;-143.47;48.27
35121;BME280;21297;52.008;4.576;2023-07-13T11:35:22;54867.28;;;-143.47;47.21
35121;BME280;21297;52.008;4.576;2023-07-13T11:38:16;54916.53;;;-143.47;48.92
35121;BME280;21297;52.008;4.576;2023-07-13T11:41:13;55026.81;;;-143.47;47.53
35121;BME280;21297;52.008;4.576;2023-07-13T11:44:19;55119.38;;;-143.47;46.85
35121;BME280;21297;52.008;4.576;2023-07-13T11:47:17;54857.44;;;-143.47;48.62
35121;BME280;21297;52.008;4.576;2023-07-13T11:50:06;55038.63;;;-143.47;46.84
35121;BME280;21297;52.008;4.576;2023-07-13T11:52:52;54629.00;;;-143.47;47.40
35121;BME280;21297;52.008;4.576;2023-07-13T11:55:39;54816.09;;;-143.47;51.42
35121;BME280;21297;52.008;4.576;2023-07-13T11:58:26;55068.19;;;-143.47;45.02
35121;BME280;21297;52.008;4.576;2023-07-13T12:01:21;55336.03;;;-143.47;46.49
35121;BME280;21297;52.008;4.576;2023-07-13T12:04:28;55389.22;;;-143.47;44.16
35121;BME280;21297;52.008;4.576;2023-07-13T12:07:18;55334.06;;;-143.47;43.38
35121;BME280;21297;52.008;4.576;2023-07-13T12:13:04;55542.84;;;-143.47;43.75
35121;BME280;21297;52.008;4.576;2023-07-13T12:15:50;55401.03;;;-143.47;43.38
35121;BME280;21297;52.008;4.576;2023-07-13T12:18:37;55523.16;;;-143.47;43.91
35121;BME280;21297;52.008;4.576;2023-07-13T12:21:33;55645.28;;;-143.47;43.18
35121;BME280;21297;52.008;4.576;2023-07-13T12:24:20;55700.44;;;-143.47;43.24
35121;BME280;21297;52.008;4.576;2023-07-13T12:27:25;55820.59;;;-143.47;43.07
35121;BME280;21297;52.008;4.576;2023-07-13T12:33:12;55631.47;;;-143.47;43.72
35121;BME280;21297;52.008;4.576;2023-07-13T12:36:02;55791.03;;;-143.47;45.43
35121;BME280;21297;52.008;4.576;2023-07-13T12:38:48;55684.66;;;-143.47;44.12
35121;BME280;21297;52.008;4.576;2023-07-13T12:41:34;55773.31;;;-143.47;44.59
35121;BME280;21297;52.008;4.576;2023-07-13T12:44:30;55757.56;;;-143.47;42.76
35121;BME280;21297;52.008;4.576;2023-07-13T12:47:20;55944.69;;;-143.47;42.46
35121;BME280;21297;52.008;4.576;2023-07-13T12:50:19;55794.97;;;-143.47;42.77
35121;BME280;21297;52.008;4.576;2023-07-13T12:53:06;55796.94;;;-143.47;43.24
35121;BME280;21297;52.008;4.576;2023-07-13T12:55:55;55749.66;;;-143.47;42.78
35121;BME280;21297;52.008;4.576;2023-07-13T12:58:45;55895.44;;;-143.47;42.80
35121;BME280;21297;52.008;4.576;2023-07-13T13:01:35;55946.66;;;-143.47;43.50
35121;BME280;21297;52.008;4.576;2023-07-13T13:04:23;55940.75;;;-143.47;42.35
35121;BME280;21297;52.008;4.576;2023-07-13T13:07:09;55832.41;;;-143.47;41.89
35121;BME280;21297;52.008;4.576;2023-07-13T13:09:55;55923.00;;;-143.47;41.74
35121;BME280;21297;52.008;4.576;2023-07-13T13:12:42;55879.69;;;-143.47;42.37
35121;BME280;21297;52.008;4.576;2023-07-13T13:15:30;56380.06;;;-143.47;42.07
35121;BME280;21297;52.008;4.576;2023-07-13T13:18:18;56289.44;;;-143.47;41.60
35121;BME280;21297;52.008;4.576;2023-07-13T13:21:04;55773.31;;;-143.47;42.59
35121;BME280;21297;52.008;4.576;2023-07-13T13:23:50;55856.03;;;-143.47;40.63
35121;BME280;21297;52.008;4.576;2023-07-13T13:26:37;55948.63;;;-143.47;41.38
35121;BME280;21297;52.008;4.576;2023-07-13T13:29:24;55934.84;;;-143.47;41.02
35121;BME280;21297;52.008;4.576;2023-07-13T13:32:12;55881.66;;;-143.47;39.76
35121;BME280;21297;52.008;4.576;2023-07-13T13:34:59;55688.59;;;-143.47;40.39
35121;BME280;21297;52.008;4.576;2023-07-13T13:37:46;55793.00;;;-143.47;40.54
35121;BME280;21297;52.008;4.576;2023-07-13T13:40:33;55745.72;;;-143.47;40.33
35121;BME280;21297;52.008;4.576;2023-07-13T13:43:24;56043.19;;;-143.47;40.81
35121;BME280;21297;52.008;4.576;2023-07-13T13:46:18;56281.56;;;-143.47;40.93
35121;BME280;21297;52.008;4.576;2023-07-13T13:49:04;56419.47;;;-143.47;41.33
35121;BME280;21297;52.008;4.576;2023-07-13T13:51:51;56531.75;;;-143.47;40.15
35121;BME280;21297;52.008;4.576;2023-07-13T13:54:37;56437.19;;;-143.47;40.00
35121;BME280;21297;52.008;4.576;2023-07-13T13:57:23;56500.25;;;-143.47;39.74
35121;BME280;21297;52.008;4.576;2023-07-13T14:00:11;56579.03;;;-143.47;39.83
35121;BME280;21297;52.008;4.576;2023-07-13T14:02:59;56443.09;;;-143.47;40.28
35121;BME280;21297;52.008;4.576;2023-07-13T14:05:46;56384.00;;;-143.47;39.53
35121;BME280;21297;52.008;4.576;2023-07-13T14:08:32;56403.69;;;-143.47;39.84
35121;BME280;21297;52.008;4.576;2023-07-13T14:11:20;56523.88;;;-143.47;40.15
35121;BME280;21297;52.008;4.576;2023-07-13T14:14:12;56547.53;;;-143.47;39.50
35121;BME280;21297;52.008;4.576;2023-07-13T14:17:00;56338.69;;;-143.47;41.10
35121;BME280;21297;52.008;4.576;2023-07-13T14:19:45;56519.94;;;-143.47;40.80
35121;BME280;21297;52.008;4.576;2023-07-13T14:22:31;54936.22;;;-143.47;44.08
35121;BME280;21297;52.008;4.576;2023-07-13T14:25:18;55154.84;;;-143.47;43.43
35121;BME280;21297;52.008;4.576;2023-07-13T14:31:01;54906.69;;;-143.47;44.61
35121;BME280;21297;52.008;4.576;2023-07-13T14:33:46;55247.41;;;-143.47;43.95
35121;BME280;21297;52.008;4.576;2023-07-13T14:36:37;55129.22;;;-143.47;44.91
35121;BME280;21297;52.008;4.576;2023-07-13T14:39:24;54699.91;;;-143.47;45.84
35121;BME280;21297;52.008;4.576;2023-07-13T14:42:10;54808.22;;;-143.47;47.10
35121;BME280;21297;52.008;4.576;2023-07-13T14:44:56;54845.63;;;-143.47;46.74
35121;BME280;21297;52.008;4.576;2023-07-13T14:47:43;55326.19;;;-143.47;46.14
35121;BME280;21297;52.008;4.576;2023-07-13T14:50:31;55564.50;;;-143.47;44.54
35121;BME280;21297;52.008;4.576;2023-07-13T14:53:18;56060.91;;;-143.47;44.71
35121;BME280;21297;52.008;4.576;2023-07-13T14:56:10;55735.88;;;-143.47;43.48
35121;BME280;21297;52.008;4.576;2023-07-13T14:58:56;56273.66;;;-143.47;43.41
35121;BME280;21297;52.008;4.576;2023-07-13T15:01:42;56362.31;;;-143.47;42.52
35121;BME280;21297;52.008;4.576;2023-07-13T15:04:29;55865.88;;;-143.47;42.69
35121;BME280;21297;52.008;4.576;2023-07-13T15:07:15;56244.13;;;-143.47;43.54
35121;BME280;21297;52.008;4.576;2023-07-13T15:10:15;56179.09;;;-143.47;43.92
35121;BME280;21297;52.008;4.576;2023-07-13T15:13:19;56516.00;;;-143.47;43.19
35121;BME280;21297;52.008;4.576;2023-07-13T15:16:17;56512.06;;;-143.47;42.35
35121;BME280;21297;52.008;4.576;2023-07-13T15:19:04;56409.59;;;-143.47;42.94
35121;BME280;21297;52.008;4.576;2023-07-13T15:21:50;56255.94;;;-143.47;42.52
35121;BME280;21297;52.008;4.576;2023-07-13T15:24:37;56330.81;;;-143.47;43.48
35121;BME280;21297;52.008;4.576;2023-07-13T15:27:23;56462.81;;;-143.47;42.33
35121;BME280;21297;52.008;4.576;2023-07-13T15:30:10;56555.41;;;-143.47;42.11
35121;BME280;21297;52.008;4.576;2023-07-13T15:33:03;56378.09;;;-143.47;42.21
35121;BME280;21297;52.008;4.576;2023-07-13T15:35:51;56506.16;;;-143.47;41.85
35121;BME280;21297;52.008;4.576;2023-07-13T15:38:39;56283.53;;;-143.47;41.93
35121;BME280;21297;52.008;4.576;2023-07-13T15:41:27;56263.81;;;-143.47;41.89
35121;BME280;21297;52.008;4.576;2023-07-13T15:44:29;56541.59;;;-143.47;41.43
35121;BME280;21297;52.008;4.576;2023-07-13T15:47:18;56545.56;;;-143.47;41.93
35121;BME280;21297;52.008;4.576;2023-07-13T15:50:04;56681.50;;;-143.47;40.63
35121;BME280;21297;52.008;4.576;2023-07-13T15:52:55;56655.88;;;-143.47;40.65
35121;BME280;21297;52.008;4.576;2023-07-13T15:55:44;56435.22;;;-143.47;41.84
35121;BME280;21297;52.008;4.576;2023-07-13T15:58:30;55895.44;;;-143.47;43.22
35121;BME280;21297;52.008;4.576;2023-07-13T16:01:17;56216.53;;;-143.47;41.59
35121;BME280;21297;52.008;4.576;2023-07-13T16:04:03;56242.16;;;-143.47;41.22
35121;BME280;21297;52.008;4.576;2023-07-13T16:06:49;56212.59;;;-143.47;41.75
35121;BME280;21297;52.008;4.576;2023-07-13T16:09:36;56133.81;;;-143.47;42.07
35121;BME280;21297;52.008;4.576;2023-07-13T16:12:22;55653.16;;;-143.47;42.76
35121;BME280;21297;52.008;4.576;2023-07-13T16:15:16;55550.72;;;-143.47;44.54
35121;BME280;21297;52.008;4.576;2023-07-13T16:18:02;55684.66;;;-143.47;43.90
35121;BME280;21297;52.008;4.576;2023-07-13T16:20:48;55720.13;;;-143.47;43.24
35121;BME280;21297;52.008;4.576;2023-07-13T16:23:34;55913.16;;;-143.47;42.63
35121;BME280;21297;52.008;4.576;2023-07-13T16:26:34;55828.47;;;-143.47;42.20
35121;BME280;21297;52.008;4.576;2023-07-13T16:29:29;55574.34;;;-143.47;43.14
35121;BME280;21297;52.008;4.576;2023-07-13T16:32:15;55686.63;;;-143.47;43.71
35121;BME280;21297;52.008;4.576;2023-07-13T16:35:01;55066.19;;;-143.47;44.57
35121;BME280;21297;52.008;4.576;2023-07-13T16:37:47;55030.75;;;-143.47;45.30
35121;BME280;21297;52.008;4.576;2023-07-13T16:40:34;55156.81;;;-143.47;45.17
35121;BME280;21297;52.008;4.576;2023-07-13T16:43:24;55066.19;;;-143.47;45.38
35121;BME280;21297;52.008;4.576;2023-07-13T16:46:12;55296.63;;;-143.47;44.69
35121;BME280;21297;52.008;4.576;2023-07-13T16:49:01;55414.81;;;-143.47;44.18
35121;BME280;21297;52.008;4.576;2023-07-13T16:51:47;55452.25;;;-143.47;43.78
35121;BME280;21297;52.008;4.576;2023-07-13T16:54:36;55499.50;;;-143.47;43.95
35121;BME280;21297;52.008;4.576;2023-07-13T16:57:33;55714.22;;;-143.47;44.07
35121;BME280;21297;52.008;4.576;2023-07-13T17:00:26;55708.31;;;-143.47;44.41
35121;BME280;21297;52.008;4.576;2023-07-13T17:03:13;55779.22;;;-143.47;42.78
35121;BME280;21297;52.008;4.576;2023-07-13T17:06:00;55710.28;;;-143.47;43.38
35121;BME280;21297;52.008;4.576;2023-07-13T17:08:49;55757.56;;;-143.47;42.97
35121;BME280;21297;52.008;4.576;2023-07-13T17:11:41;55810.72;;;-143.47;43.10
35121;BME280;21297;52.008;4.576;2023-07-13T17:14:30;55540.88;;;-143.47;43.09
35121;BME280;21297;52.008;4.576;2023-07-13T17:17:33;55751.63;;;-143.47;43.02
35121;BME280;21297;52.008;4.576;2023-07-13T17:20:25;55810.72;;;-143.47;43.35
35121;BME280;21297;52.008;4.576;2023-07-13T17:23:13;55406.94;;;-143.47;42.85
35121;BME280;21297;52.008;4.576;2023-07-13T17:26:01;55471.94;;;-143.47;43.56
35121;BME280;21297;52.008;4.576;2023-07-13T17:28:47;55487.69;;;-143.47;42.93
35121;BME280;21297;52.008;4.576;2023-07-13T17:31:33;55645.28;;;-143.47;43.35
35121;BME280;21297;52.008;4.576;2023-07-13T17:34:20;55779.22;;;-143.47;42.99
35121;BME280;21297;52.008;4.576;2023-07-13T17:37:08;55641.34;;;-143.47;43.36
35121;BME280;21297;52.008;4.576;2023-07-13T17:39:57;55751.63;;;-143.47;43.10
35121;BME280;21297;52.008;4.576;2023-07-13T17:42:46;55990.00;;;-143.47;43.60
35121;BME280;21297;52.008;4.576;2023-07-13T17:45:32;55846.19;;;-143.47;43.77
35121;BME280;21297;52.008;4.576;2023-07-13T17:48:18;55897.41;;;-143.47;43.43
35121;BME280;21297;52.008;4.576;2023-07-13T17:51:09;55948.63;;;-143.47;43.48
35121;BME280;21297;52.008;4.576;2023-07-13T17:53:55;55706.34;;;-143.47;43.24